Broen, Sweden

12:30 PM CEST on July 06, 2015 (GMT +0200)
Eftra 2 | | Change Station
CLOSE
Current Station
Personal Weather Station
Location: Eftra, HALLANDS LäN
Elevation: 138 ft
Nearby Weather Stations

Elev 138 ft 56.86 °N, 12.65 °E | Updated 31 seconds ago

Mostly Cloudy
Mostly Cloudy
63.1 °F
Feels Like 63.1 °F
N
0.0
Wind Variable Wind from North
Gusts 0.0 mph

Today
High -- | Low -- °F
--% Chance of Precip.
Yesterday
High -- | Low -- °F
Precip. -- in
4:25 AM 10:01 PM
Waning Gibbous, 77% visible
Pressure 29.89 in
Visibility 6.2 miles
Clouds Few 2500 ft
Scattered Clouds 3000 ft
Mostly Cloudy 3500 ft
Dew Point 48 °F
Humidity 58%
Rainfall 0.00 in
Snow Depth Not available.
UV 5 out of 12
Pollen Not available.
Air Quality Not available.
Flu Activity Not available.
METAR ESMT 061020Z AUTO 24020G31KT 9999 FEW025/// SCT030/// BKN035/// 17/12 Q1012

More Conditions Fewer Conditions

Pressure 29.89 in
Visibility 6.2 miles
Clouds Few 2500 ft
Scattered Clouds 3000 ft
Mostly Cloudy 3500 ft
Dew Point 48 °F
Humidity 58%
Rainfall 0.00 in
Snow Depth Not available.
UV 5 out of 12
Pollen Not available.
Air Quality Not available.
Flu Activity Not available.
METAR ESMT 061020Z AUTO 24020G31KT 9999 FEW025/// SCT030/// BKN035/// 17/12 Q1012

More Conditions Fewer Conditions

10-Day Weather Forecast

×

Almanac

Astronomy

Jul. 06, 2015 Rise Set
Actual Time
Civil Twilight
Nautical Twilight
Astronomical Twilight
Moon
Length of Visible Light
Length of Day
Tomorrow will be .
, % of the Moon is Illuminated

Today's Extremes

Country Highs Country Lows

Community

WunderPhotos

Upload Photos

1,835,530 photos uploaded!

WunderBlogs® & News

Nearby

Air Quality

  Air Quality AQ Index Pollutant
Not available.

Snow Depth

Station Depth Elevation

Earthquake Activity

City Distance Mag. Time & Date
Minimum magnitude displayed is 2.5.

Coastal Water Temperatures

Place Temperature

Stations

Nearby Weather Stations

Station Location Temp. Windchill Dew Point Humidity Wind Precip. Elev Updated Type